Fillmore, Kentucky
Current Conditions -  °F | °C
As of 5:53 AM on Tuesday 21 Oct 2014 (Local Time) from KJKL Reporting Station
Clear Clear  
Wind Chill: 49°   Ceiling: Unl
Heat Index: 49°   Visibility: 8mi
Dew Point: 46°   Wind: 3mph
Humidity: 90%   Direction: NA
Pressure: 29.94"   Gusts: NA
Location:  37.5908°N, 83.7186°W
Report Text: KJKL 210953Z AUTO VRB03KT 8SM CLR 09/08 A2994 RMK AO2 SLP134 T00940078
Loading
Personal Weather Stations






























Interactive Weather Map
Tropical Storm Tracking
New forecast layout! Learn more

10-Day Weather Forecast

Advertisements
Track Severe Weather on mobile